Khulna, Bangladesh
Current Conditions -  °F | °C
As of 11:20 AM on Saturday 25 Oct 2014 (Local Time) from VGHS Reporting Station
Haze Haze  
Wind Chill: 88°   Ceiling: Unl
Heat Index: 90°   Visibility: 3mi
Dew Point: 66°   Wind: 6mph
Humidity: 49%   Direction: 60°ENE
Pressure: 29.85"   Gusts: NA
Location:  23.37°N, 89.5°E
Report Text: VGHS 250520Z 06005KT 5000 HZ NSC 31/19 Q1011 NOSIG
Loading
Personal Weather Stations






























Interactive Weather Map
Tropical Storm Tracking
New forecast layout! Learn more

10-Day Weather Forecast

Advertisements
Track Severe Weather on mobile